Time;durP1;ratioP1;P1;durP2;ratioP2;P2;SDS_P1;SDS_P2;PMS_P1;PMS_P2;Temp;Humidity;BMP_temperature;BMP_pressure;BME280_temperature;BME280_humidity;BME280_pressure;Samples;Min_cycle;Max_cycle;Signal;HPM_P1;HPM_P2
2021/12/06 00:01:45;;;;;;;1.90;0.80;;;18.80;54.20;;;;;;4992454;28;20054;-84
2021/12/06 00:04:30;;;;;;;1.55;0.82;;;18.70;54.10;;;;;;4970836;28;20058;-83
2021/12/06 00:06:58;;;;;;;2.17;0.75;;;18.80;54.20;;;;;;4986351;28;20061;-83
2021/12/06 00:09:24;;;;;;;1.77;0.80;;;18.80;54.20;;;;;;4991777;28;20062;-83
2021/12/06 00:11:56;;;;;;;1.83;1.02;;;18.80;54.20;;;;;;4984981;28;20063;-83
2021/12/06 00:14:33;;;;;;;2.53;0.82;;;18.80;54.20;;;;;;4970093;28;20047;-83
2021/12/06 00:17:01;;;;;;;1.60;0.82;;;18.80;54.20;;;;;;4969723;28;20050;-84
2021/12/06 00:19:27;;;;;;;1.75;0.73;;;18.80;54.20;;;;;;4970498;28;20058;-83
2021/12/06 00:21:52;;;;;;;1.85;0.95;;;18.80;54.20;;;;;;4969937;28;20101;-84
2021/12/06 00:24:18;;;;;;;2.03;0.80;;;18.80;54.20;;;;;;4970744;28;20049;-84
2021/12/06 00:26:44;;;;;;;1.75;0.77;;;18.80;54.20;;;;;;4970258;28;20038;-84
2021/12/06 00:29:09;;;;;;;1.85;0.80;;;18.80;54.20;;;;;;4959257;28;20182;-84
2021/12/06 00:31:35;;;;;;;1.77;0.82;;;18.80;54.20;;;;;;4970267;28;20480;-84
2021/12/06 00:34:05;;;;;;;2.08;0.80;;;18.80;54.20;;;;;;4969581;28;20557;-84
2021/12/06 00:36:32;;;;;;;1.23;0.73;;;18.80;54.30;;;;;;4970446;28;20057;-84
2021/12/06 00:38:59;;;;;;;1.88;1.00;;;18.80;54.20;;;;;;4970107;28;20046;-84
2021/12/06 00:41:24;;;;;;;1.92;0.80;;;20.60;55.20;;;;;;4969721;28;20058;-83
2021/12/06 00:43:50;;;;;;;3.72;1.23;;;18.80;54.20;;;;;;4969993;28;20051;-83
2021/12/06 00:46:16;;;;;;;1.60;1.02;;;18.80;54.20;;;;;;4970133;28;20051;-83
2021/12/06 00:48:41;;;;;;;1.90;0.90;;;18.80;54.20;;;;;;4969442;28;20055;-84
2021/12/06 00:51:07;;;;;;;1.52;0.73;;;18.80;54.20;;;;;;4969503;28;20059;-83
2021/12/06 00:53:32;;;;;;;3.72;1.00;;;18.80;54.20;;;;;;4968623;28;20197;-84
2021/12/06 00:55:58;;;;;;;1.75;0.90;;;18.80;54.20;;;;;;4969035;28;20062;-84
2021/12/06 00:58:24;;;;;;;2.53;0.93;;;18.80;54.20;;;;;;4970097;28;20059;-84
2021/12/06 01:00:51;;;;;;;2.65;1.30;;;18.80;54.20;;;;;;4969554;28;20042;-83
2021/12/06 01:03:20;;;;;;;2.70;1.20;;;20.40;55.00;;;;;;4969067;28;20050;-84
2021/12/06 01:05:46;;;;;;;1.38;0.60;;;18.80;54.20;;;;;;4969565;28;20057;-84
2021/12/06 01:08:11;;;;;;;1.77;0.90;;;18.80;54.20;;;;;;4968115;28;20053;-82
2021/12/06 01:10:37;;;;;;;2.03;1.00;;;18.80;54.10;;;;;;4969357;28;20509;-83
2021/12/06 01:13:03;;;;;;;1.85;0.93;;;18.80;54.10;;;;;;4969615;28;20047;-83
2021/12/06 01:15:29;;;;;;;2.08;1.00;;;18.80;54.20;;;;;;4969505;28;20062;-84
2021/12/06 01:17:55;;;;;;;1.80;0.90;;;18.80;54.10;;;;;;4959036;28;20058;-83
2021/12/06 01:20:23;;;;;;;1.73;0.82;;;18.70;54.10;;;;;;4969927;28;20046;-83
2021/12/06 01:22:56;;;;;;;1.88;0.95;;;18.80;54.10;;;;;;4969383;28;20498;-82
2021/12/06 01:28:19;;;;;;;2.08;0.90;;;18.80;54.10;;;;;;4912304;29;20075;-84
2021/12/06 01:33:38;;;;;;;2.00;0.95;;;20.00;54.80;;;;;;4912166;29;20108;-83
2021/12/06 01:41:54;;;;;;;2.17;0.98;;;18.80;54.10;;;;;;4865733;29;20492;-83
2021/12/06 01:44:24;;;;;;;2.35;1.10;;;18.80;54.10;;;;;;4908097;29;20578;-84
2021/12/06 01:47:04;;;;;;;1.70;1.00;;;18.80;54.10;;;;;;4939852;28;20069;-83
2021/12/06 01:49:33;;;;;;;2.95;1.10;;;18.90;54.20;;;;;;4969519;28;20194;-83
2021/12/06 01:52:01;;;;;;;2.28;1.10;;;18.80;54.10;;;;;;4967828;28;20069;-83
2021/12/06 01:54:26;;;;;;;1.92;0.98;;;18.80;54.10;;;;;;4969459;28;20095;-83
2021/12/06 01:56:52;;;;;;;2.42;1.00;;;18.80;54.10;;;;;;4970398;28;20150;-83
2021/12/06 01:59:18;;;;;;;2.25;1.20;;;18.80;54.10;;;;;;4968738;28;20046;-84
2021/12/06 02:01:44;;;;;;;1.65;0.90;;;18.90;54.10;;;;;;4969130;28;20055;-83
2021/12/06 02:04:09;;;;;;;2.00;1.10;;;18.90;54.20;;;;;;4974264;28;20039;-83
2021/12/06 02:06:35;;;;;;;1.92;1.00;;;18.90;54.10;;;;;;4972165;28;20859;-83
2021/12/06 02:09:02;;;;;;;2.63;1.20;;;18.90;54.10;;;;;;4972944;28;20059;-83
2021/12/06 02:11:31;;;;;;;2.78;1.10;;;18.80;54.10;;;;;;4965362;28;20070;-83
2021/12/06 02:14:20;;;;;;;2.50;1.10;;;18.80;54.10;;;;;;4953284;28;20058;-83
2021/12/06 02:16:58;;;;;;;2.35;1.10;;;18.80;54.10;;;;;;4971829;28;20047;-83
2021/12/06 02:19:30;;;;;;;2.40;1.17;;;18.80;54.10;;;;;;4972417;28;20055;-82
2021/12/06 02:21:56;;;;;;;2.20;1.10;;;18.80;54.10;;;;;;4971710;28;20120;-83
2021/12/06 02:24:22;;;;;;;2.42;1.15;;;18.80;54.10;;;;;;4972802;28;20569;-83
2021/12/06 02:26:47;;;;;;;2.38;1.23;;;18.90;54.10;;;;;;4971936;28;20185;-83
2021/12/06 02:29:13;;;;;;;2.42;1.10;;;18.90;54.10;;;;;;4972984;28;20051;-83
2021/12/06 02:31:39;;;;;;;2.75;1.10;;;18.80;54.10;;;;;;4972666;28;20439;-83
2021/12/06 02:34:05;;;;;;;2.13;1.00;;;18.90;54.20;;;;;;4972150;28;20043;-83
2021/12/06 02:36:30;;;;;;;2.03;1.05;;;18.90;54.20;;;;;;4972617;28;20050;-83
2021/12/06 02:38:56;;;;;;;2.13;1.00;;;18.90;54.10;;;;;;4972554;28;20062;-83
2021/12/06 02:41:22;;;;;;;2.05;1.00;;;18.90;54.20;;;;;;4971651;28;20042;-83
2021/12/06 02:43:48;;;;;;;2.13;1.10;;;18.90;54.10;;;;;;4972559;28;20615;-83
2021/12/06 02:46:14;;;;;;;1.73;0.80;;;18.90;54.20;;;;;;4972126;28;20054;-84
2021/12/06 02:48:39;;;;;;;3.50;1.30;;;18.90;54.20;;;;;;4967807;28;20055;-84
2021/12/06 02:51:06;;;;;;;2.65;1.33;;;18.90;54.10;;;;;;4972327;28;20430;-84
2021/12/06 02:53:32;;;;;;;2.58;1.20;;;20.20;54.80;;;;;;4972196;28;20043;-83
2021/12/06 02:56:04;;;;;;;2.80;1.30;;;18.90;54.20;;;;;;4971616;28;20070;-84
2021/12/06 03:01:19;;;;;;;2.58;1.30;;;18.90;54.10;;;;;;4972389;28;20152;-83
2021/12/06 03:03:44;;;;;;;2.30;1.35;;;19.30;54.30;;;;;;4971871;28;20054;-83
2021/12/06 03:06:11;;;;;;;2.97;1.30;;;19.00;54.20;;;;;;4972059;28;20058;-83
2021/12/06 03:08:41;;;;;;;3.45;1.42;;;18.90;54.10;;;;;;4967798;28;20059;-83
2021/12/06 03:11:09;;;;;;;3.15;1.40;;;19.00;54.10;;;;;;4972125;28;20055;-82
2021/12/06 03:13:35;;;;;;;2.60;1.25;;;19.00;54.20;;;;;;4971234;28;20053;-84
2021/12/06 03:16:00;;;;;;;2.42;1.25;;;19.00;54.10;;;;;;4971101;28;20046;-83
2021/12/06 03:18:26;;;;;;;3.00;1.40;;;19.00;54.10;;;;;;4971515;28;20054;-83
2021/12/06 03:20:51;;;;;;;2.72;1.40;;;19.00;54.10;;;;;;4971560;28;20042;-83
2021/12/06 03:23:17;;;;;;;2.72;1.40;;;19.00;54.10;;;;;;4970876;28;20158;-83
2021/12/06 03:25:43;;;;;;;3.20;1.55;;;19.40;54.30;;;;;;4971564;28;20034;-84
2021/12/06 03:28:09;;;;;;;2.65;1.20;;;19.00;54.10;;;;;;4971775;28;20514;-83
2021/12/06 03:30:34;;;;;;;2.97;1.30;;;19.00;54.10;;;;;;4971182;28;20047;-83
2021/12/06 03:33:00;;;;;;;2.58;1.42;;;19.00;54.10;;;;;;4971674;28;20054;-83
2021/12/06 03:35:25;;;;;;;2.90;1.30;;;20.50;54.80;;;;;;4971441;28;20046;-83
2021/12/06 03:37:51;;;;;;;2.78;1.50;;;19.00;54.00;;;;;;4970480;28;20070;-83
2021/12/06 03:40:16;;;;;;;2.53;1.27;;;19.00;54.00;;;;;;4971187;28;20078;-83
2021/12/06 03:42:42;;;;;;;3.38;1.65;;;19.00;54.10;;;;;;4971173;28;20053;-83
2021/12/06 03:45:08;;;;;;;3.05;1.50;;;19.00;54.10;;;;;;4970352;28;20050;-83
2021/12/06 03:47:34;;;;;;;2.80;1.38;;;19.00;54.00;;;;;;4970877;28;20058;-83
2021/12/06 03:50:00;;;;;;;3.58;1.50;;;19.00;54.00;;;;;;4971570;28;20046;-83
2021/12/06 03:52:25;;;;;;;3.80;1.50;;;19.00;54.10;;;;;;4970741;28;20097;-83
2021/12/06 03:54:51;;;;;;;3.65;1.50;;;19.00;54.00;;;;;;4970203;28;20466;-83
2021/12/06 03:57:17;;;;;;;3.15;1.40;;;19.00;54.00;;;;;;4970866;28;20043;-83
2021/12/06 03:59:43;;;;;;;3.38;1.70;;;19.00;54.00;;;;;;4970439;28;20159;-83
2021/12/06 04:02:09;;;;;;;4.10;1.73;;;19.00;54.00;;;;;;4970585;28;20138;-84
2021/12/06 04:04:35;;;;;;;3.60;1.88;;;19.50;54.30;;;;;;4970994;28;20053;-84
2021/12/06 04:07:01;;;;;;;3.85;1.73;;;19.00;54.00;;;;;;4970386;28;20053;-83
2021/12/06 04:09:26;;;;;;;3.33;1.70;;;18.90;54.00;;;;;;4971135;28;20039;-83
2021/12/06 04:11:52;;;;;;;4.15;2.33;;;19.00;54.00;;;;;;4970865;28;20089;-83
2021/12/06 04:14:17;;;;;;;3.95;2.08;;;19.10;54.10;;;;;;4970031;28;20039;-83
2021/12/06 04:16:43;;;;;;;3.53;1.58;;;19.00;54.00;;;;;;4970334;28;20090;-83
2021/12/06 04:19:09;;;;;;;3.25;1.73;;;19.00;54.00;;;;;;4970181;28;20049;-83
2021/12/06 04:21:35;;;;;;;3.08;1.60;;;19.00;54.00;;;;;;4970839;28;20129;-84
2021/12/06 04:24:00;;;;;;;3.88;1.60;;;19.00;54.00;;;;;;4970596;28;20166;-84
2021/12/06 04:26:26;;;;;;;3.03;1.77;;;19.10;54.10;;;;;;4969086;28;20495;-83
2021/12/06 04:28:59;;;;;;;4.07;1.80;;;19.00;54.00;;;;;;4970716;28;20089;-83
2021/12/06 04:31:26;;;;;;;4.00;1.80;;;19.10;54.10;;;;;;4970371;28;20516;-83
2021/12/06 04:33:52;;;;;;;4.15;1.90;;;19.00;54.00;;;;;;4971186;28;20066;-83
2021/12/06 04:36:17;;;;;;;3.95;1.98;;;19.10;54.00;;;;;;4971787;28;20046;-83
2021/12/06 04:38:43;;;;;;;3.83;2.03;;;19.10;54.00;;;;;;4970509;28;20458;-84
2021/12/06 04:41:08;;;;;;;3.80;2.10;;;19.10;54.00;;;;;;4968655;28;20406;-83
2021/12/06 04:43:34;;;;;;;4.05;1.88;;;19.10;54.00;;;;;;4971418;28;20050;-84
2021/12/06 04:46:00;;;;;;;4.10;2.10;;;19.10;54.70;;;;;;4970120;28;20058;-83
2021/12/06 04:48:25;;;;;;;3.25;1.88;;;19.10;54.00;;;;;;4969619;28;20056;-83
2021/12/06 04:50:51;;;;;;;3.45;1.70;;;19.10;54.00;;;;;;4969965;28;20042;-84
2021/12/06 04:53:19;;;;;;;4.28;2.13;;;19.10;54.00;;;;;;4970375;28;20153;-84
2021/12/06 04:55:53;;;;;;;4.55;2.08;;;19.10;54.00;;;;;;4969747;28;20065;-84
2021/12/06 04:58:24;;;;;;;3.90;2.13;;;19.10;54.00;;;;;;4969881;28;20204;-84
2021/12/06 05:00:54;;;;;;;4.32;1.98;;;19.10;54.00;;;;;;4969816;28;20051;-84
2021/12/06 05:03:20;;;;;;;3.95;2.05;;;19.10;54.00;;;;;;4969160;28;20050;-84
2021/12/06 05:05:50;;;;;;;4.97;2.35;;;20.80;54.90;;;;;;4969981;28;20109;-84
2021/12/06 05:08:30;;;;;;;4.20;2.20;;;19.10;54.00;;;;;;4969217;28;20046;-83
2021/12/06 05:10:57;;;;;;;3.58;1.90;;;19.10;54.60;;;;;;4969890;28;20101;-83
2021/12/06 05:13:23;;;;;;;4.18;2.28;;;19.10;54.00;;;;;;4969531;28;20047;-83
2021/12/06 05:15:48;;;;;;;5.20;2.58;;;19.10;54.00;;;;;;4969127;28;20058;-83
2021/12/06 05:18:14;;;;;;;4.80;2.30;;;19.10;54.00;;;;;;4969598;28;20054;-83
2021/12/06 05:20:40;;;;;;;4.88;2.25;;;19.10;54.00;;;;;;4969410;28;20070;-83
2021/12/06 05:23:05;;;;;;;4.85;2.70;;;19.10;54.00;;;;;;4968059;28;20066;-83
2021/12/06 05:25:31;;;;;;;4.80;2.38;;;19.10;53.90;;;;;;4969487;28;20450;-84
2021/12/06 05:27:58;;;;;;;3.90;2.15;;;19.10;54.00;;;;;;4969417;28;20411;-83
2021/12/06 05:30:25;;;;;;;4.35;2.45;;;19.10;53.90;;;;;;4968800;28;20043;-84
2021/12/06 05:32:51;;;;;;;3.83;2.30;;;19.10;54.00;;;;;;4974745;28;20062;-83
2021/12/06 05:35:16;;;;;;;4.10;2.13;;;19.10;53.90;;;;;;4988991;28;20042;-84
2021/12/06 05:37:47;;;;;;;4.50;2.28;;;19.10;54.00;;;;;;4987679;28;20055;-84
2021/12/06 05:40:19;;;;;;;4.40;2.03;;;19.10;53.90;;;;;;4988833;28;20060;-84
2021/12/06 05:42:44;;;;;;;4.55;2.70;;;19.10;53.90;;;;;;4987730;28;20157;-84
2021/12/06 05:45:10;;;;;;;5.35;2.47;;;19.10;53.90;;;;;;4984958;28;20141;-84
2021/12/06 05:47:36;;;;;;;3.92;2.33;;;19.10;54.00;;;;;;4988533;28;20064;-84
2021/12/06 05:50:03;;;;;;;3.90;2.17;;;19.10;53.90;;;;;;4988552;28;20054;-84
2021/12/06 05:52:28;;;;;;;3.58;1.88;;;19.10;53.90;;;;;;4987926;28;20081;-84
2021/12/06 05:54:54;;;;;;;4.28;2.50;;;19.10;53.90;;;;;;4988529;28;20525;-84
2021/12/06 05:57:19;;;;;;;4.50;2.28;;;19.10;53.90;;;;;;4988483;28;20086;-84
2021/12/06 05:59:45;;;;;;;4.80;2.42;;;19.10;53.90;;;;;;4985088;28;20086;-84
2021/12/06 06:02:11;;;;;;;4.82;2.65;;;19.10;53.90;;;;;;4988679;28;20481;-84
2021/12/06 06:04:37;;;;;;;5.13;2.58;;;19.10;53.90;;;;;;4988186;28;20061;-84
2021/12/06 06:07:03;;;;;;;4.55;2.25;;;19.10;53.90;;;;;;4988665;28;20046;-83
2021/12/06 06:09:29;;;;;;;4.53;2.38;;;19.10;53.80;;;;;;4988519;28;20077;-83
2021/12/06 06:11:54;;;;;;;5.20;2.40;;;19.10;53.80;;;;;;4988006;28;20146;-83
2021/12/06 06:14:20;;;;;;;4.38;2.40;;;19.10;53.90;;;;;;4988308;28;20096;-84
2021/12/06 06:16:47;;;;;;;4.68;2.35;;;19.10;53.80;;;;;;4988345;28;20049;-83
2021/12/06 06:19:18;;;;;;;4.90;2.75;;;19.10;53.80;;;;;;4987799;28;20057;-83
2021/12/06 06:21:43;;;;;;;5.95;2.83;;;19.10;53.80;;;;;;4988450;28;20593;-84
2021/12/06 06:24:09;;;;;;;3.70;2.03;;;19.10;53.80;;;;;;4988058;28;20058;-85
2021/12/06 06:26:35;;;;;;;4.97;2.95;;;19.10;53.80;;;;;;4987697;28;20046;-84
2021/12/06 06:29:00;;;;;;;4.35;2.45;;;19.10;53.80;;;;;;4988149;28;20508;-84
2021/12/06 06:31:26;;;;;;;4.53;2.60;;;19.10;53.80;;;;;;4987389;28;20058;-84
2021/12/06 06:33:51;;;;;;;5.20;2.70;;;19.10;53.90;;;;;;4980386;28;20220;-84
2021/12/06 06:36:17;;;;;;;4.72;2.58;;;19.10;53.90;;;;;;4987439;28;20048;-84
2021/12/06 06:38:42;;;;;;;4.07;2.53;;;19.10;53.90;;;;;;4987993;28;20133;-83
2021/12/06 06:41:08;;;;;;;3.65;2.42;;;19.10;53.80;;;;;;4986313;28;20093;-84
2021/12/06 06:43:35;;;;;;;4.88;2.65;;;19.10;53.80;;;;;;4988101;28;20061;-83
2021/12/06 06:46:04;;;;;;;4.63;2.72;;;19.10;53.80;;;;;;4987881;28;20090;-83
2021/12/06 06:48:30;;;;;;;4.70;2.50;;;19.10;53.80;;;;;;4986897;28;20054;-84
2021/12/06 06:50:55;;;;;;;4.30;2.50;;;19.20;53.90;;;;;;4981115;28;20046;-84
2021/12/06 06:53:21;;;;;;;4.40;2.40;;;19.20;53.90;;;;;;4990362;28;20457;-83
2021/12/06 06:55:47;;;;;;;4.10;2.08;;;19.10;53.80;;;;;;4990653;28;20054;-83
2021/12/06 06:58:12;;;;;;;4.97;2.60;;;19.20;53.90;;;;;;4979574;28;20062;-82
2021/12/06 07:00:38;;;;;;;4.78;2.50;;;19.10;53.90;;;;;;4986986;28;20097;-82
2021/12/06 07:03:07;;;;;;;4.93;2.58;;;19.10;53.90;;;;;;4990395;28;20046;-82
2021/12/06 07:05:33;;;;;;;4.70;2.40;;;19.10;53.90;;;;;;4974639;28;20507;-81
2021/12/06 07:07:59;;;;;;;4.57;2.60;;;19.20;53.90;;;;;;4960100;28;20070;-81
2021/12/06 07:10:24;;;;;;;3.80;2.20;;;19.20;53.90;;;;;;4971637;28;20038;-81
2021/12/06 07:12:51;;;;;;;4.63;2.45;;;19.20;54.00;;;;;;4971916;28;20047;-82
2021/12/06 07:15:20;;;;;;;4.63;2.60;;;21.10;54.90;;;;;;4971842;28;20097;-82
2021/12/06 07:17:45;;;;;;;4.82;2.70;;;19.20;53.90;;;;;;4972347;28;20054;-81
2021/12/06 07:20:12;;;;;;;5.55;2.40;;;19.20;53.90;;;;;;4971540;28;20073;-83
2021/12/06 07:22:37;;;;;;;4.90;2.72;;;19.20;53.90;;;;;;4970739;28;20089;-82
2021/12/06 07:25:03;;;;;;;5.43;2.78;;;19.20;54.60;;;;;;4968731;28;20078;-83
2021/12/06 07:27:29;;;;;;;4.50;2.75;;;19.20;53.80;;;;;;4971036;28;20054;-83
2021/12/06 07:29:54;;;;;;;4.53;2.80;;;19.20;53.80;;;;;;4954528;28;20054;-83
2021/12/06 07:32:20;;;;;;;4.55;2.25;;;19.20;53.80;;;;;;4971045;28;20058;-82
2021/12/06 07:34:47;;;;;;;4.55;2.42;;;19.20;53.80;;;;;;4961774;28;20418;-83
2021/12/06 07:37:13;;;;;;;4.40;2.17;;;19.20;53.80;;;;;;4970464;28;20581;-83
2021/12/06 07:39:38;;;;;;;4.95;2.60;;;19.20;53.80;;;;;;4971368;28;20145;-83
2021/12/06 07:42:04;;;;;;;5.00;2.78;;;20.00;54.20;;;;;;4971262;28;20525;-83
2021/12/06 07:44:31;;;;;;;5.18;3.00;;;19.20;53.80;;;;;;4968422;28;20051;-82
2021/12/06 07:46:56;;;;;;;5.50;2.60;;;19.20;53.80;;;;;;4959204;28;20094;-82
2021/12/06 07:49:22;;;;;;;4.07;2.42;;;19.20;53.80;;;;;;4962220;28;20050;-83
2021/12/06 07:51:48;;;;;;;6.78;3.10;;;19.20;53.80;;;;;;4953081;28;20054;-83
2021/12/06 07:54:13;;;;;;;5.88;3.05;;;19.20;53.70;;;;;;4970898;28;20050;-82
2021/12/06 07:56:40;;;;;;;5.03;2.50;;;20.30;54.30;;;;;;4967855;28;20392;-82
2021/12/06 07:59:06;;;;;;;5.68;3.05;;;19.20;53.70;;;;;;4951372;28;20051;-82
2021/12/06 08:01:31;;;;;;;4.93;3.00;;;19.20;53.70;;;;;;4967592;28;20051;-83
2021/12/06 08:03:59;;;;;;;4.93;2.80;;;19.20;53.70;;;;;;4967500;28;20043;-83
2021/12/06 08:06:24;;;;;;;5.15;2.72;;;19.20;53.70;;;;;;4966911;28;20055;-83
2021/12/06 08:08:50;;;;;;;4.18;2.60;;;19.20;53.70;;;;;;4973637;28;20041;-82
2021/12/06 08:11:17;;;;;;;4.68;2.75;;;19.20;53.70;;;;;;4970012;28;20055;-82
2021/12/06 08:13:44;;;;;;;5.70;3.08;;;19.20;53.70;;;;;;4972534;28;20065;-83
2021/12/06 08:16:18;;;;;;;6.65;3.72;;;19.20;53.60;;;;;;4965310;28;20075;-79
2021/12/06 08:18:46;;;;;;;7.35;4.22;;;19.20;53.60;;;;;;4964874;28;20057;-79
2021/12/06 08:21:13;;;;;;;6.20;3.53;;;19.10;53.30;;;;;;4953348;28;20681;-81
2021/12/06 08:23:39;;;;;;;6.90;4.55;;;19.10;53.30;;;;;;4950904;29;20451;-81
2021/12/06 08:26:05;;;;;;;8.98;5.55;;;19.20;53.50;;;;;;4968665;28;20047;-83
2021/12/06 08:28:32;;;;;;;8.63;5.10;;;20.10;53.90;;;;;;4966118;28;20567;-81
2021/12/06 08:30:57;;;;;;;8.68;5.03;;;19.10;53.40;;;;;;4959491;28;20061;-80
2021/12/06 08:33:24;;;;;;;11.98;5.40;;;19.10;53.40;;;;;;4967686;28;20054;-79
2021/12/06 08:35:53;;;;;;;8.95;5.38;;;19.20;53.40;;;;;;4969177;28;20125;-78
2021/12/06 08:38:19;;;;;;;7.72;4.93;;;19.20;53.40;;;;;;4970341;28;20105;-81
2021/12/06 08:40:45;;;;;;;9.60;5.18;;;19.10;53.40;;;;;;4968240;28;20078;-80
2021/12/06 08:43:16;;;;;;;8.05;4.82;;;19.20;53.50;;;;;;4967877;28;20085;-86
2021/12/06 08:45:43;;;;;;;9.27;5.03;;;19.20;53.50;;;;;;4966467;28;20080;-81
2021/12/06 08:48:09;;;;;;;9.63;4.78;;;19.20;53.50;;;;;;4967446;28;20610;-82
2021/12/06 08:50:34;;;;;;;8.57;5.55;;;19.20;53.50;;;;;;4969302;28;20050;-82
2021/12/06 08:53:00;;;;;;;10.32;5.20;;;19.20;53.50;;;;;;4969686;28;20371;-82
2021/12/06 08:55:26;;;;;;;7.75;4.70;;;19.20;53.40;;;;;;4969013;28;20047;-82
2021/12/06 08:57:51;;;;;;;7.65;4.95;;;19.20;53.40;;;;;;4969534;28;20043;-82
2021/12/06 09:00:24;;;;;;;9.90;5.47;;;19.20;53.40;;;;;;4969871;28;20097;-82
2021/12/06 09:02:49;;;;;;;7.25;4.32;;;20.80;54.20;;;;;;4970074;28;20101;-82
2021/12/06 09:05:15;;;;;;;8.10;4.80;;;19.20;53.40;;;;;;4964548;28;20062;-82
2021/12/06 09:07:40;;;;;;;8.38;4.85;;;19.20;53.40;;;;;;4957935;28;20316;-82
2021/12/06 09:10:07;;;;;;;9.65;4.93;;;20.50;54.00;;;;;;4959158;28;20130;-82
2021/12/06 09:12:32;;;;;;;9.27;5.30;;;19.20;53.30;;;;;;4958199;28;20059;-83
2021/12/06 09:15:00;;;;;;;8.43;5.07;;;19.20;53.40;;;;;;4968799;28;20043;-84
2021/12/06 09:17:25;;;;;;;7.28;4.95;;;19.20;53.30;;;;;;4966696;28;20062;-83
2021/12/06 09:19:51;;;;;;;6.35;4.47;;;19.20;53.30;;;;;;4957107;28;20399;-82
2021/12/06 09:22:17;;;;;;;7.70;5.40;;;19.30;53.30;;;;;;4957018;28;20751;-83
2021/12/06 09:24:42;;;;;;;7.80;4.78;;;19.20;53.20;;;;;;4959854;28;20175;-83
2021/12/06 09:27:08;;;;;;;7.88;4.75;;;19.20;53.20;;;;;;4968457;28;20713;-83
2021/12/06 09:29:36;;;;;;;8.82;5.25;;;19.20;53.20;;;;;;4968318;28;20109;-83
2021/12/06 09:32:07;;;;;;;9.50;4.50;;;19.20;53.10;;;;;;4970050;28;20043;-87
2021/12/06 09:34:32;;;;;;;6.82;4.30;;;19.20;53.20;;;;;;4986978;28;20057;-80
2021/12/06 09:36:59;;;;;;;11.77;4.90;;;19.20;53.20;;;;;;4966437;28;20043;-83
2021/12/06 09:39:24;;;;;;;9.02;4.38;;;19.20;53.20;;;;;;4968258;28;20346;-79
2021/12/06 09:41:50;;;;;;;9.13;4.60;;;19.20;53.10;;;;;;4955907;28;20565;-79
2021/12/06 09:44:16;;;;;;;9.18;4.43;;;19.20;53.10;;;;;;4961948;28;20477;-81
2021/12/06 09:46:42;;;;;;;10.98;5.25;;;19.20;53.20;;;;;;4968722;28;20053;-80
2021/12/06 09:49:13;;;;;;;10.75;5.63;;;19.20;53.20;;;;;;4968548;28;20063;-79
2021/12/06 09:51:41;;;;;;;10.45;5.55;;;19.20;53.20;;;;;;4968717;28;20406;-80
2021/12/06 09:54:07;;;;;;;11.32;5.97;;;19.10;53.10;;;;;;4968334;28;20121;-79
2021/12/06 09:56:35;;;;;;;16.17;5.70;;;19.80;53.50;;;;;;4968715;28;20728;-80
2021/12/06 09:59:02;;;;;;;31.33;13.40;;;19.10;53.20;;;;;;4967598;28;20053;-77
2021/12/06 10:01:33;;;;;;;85.20;31.70;;;19.10;53.10;;;;;;4953010;28;20042;-79
2021/12/06 10:03:58;;;;;;;75.07;25.75;;;19.10;53.20;;;;;;4983108;28;20047;-82
2021/12/06 10:06:26;;;;;;;32.30;13.55;;;19.10;53.40;;;;;;4956726;28;20110;-81
2021/12/06 10:08:52;;;;;;;37.00;13.73;;;19.10;53.60;;;;;;4959043;28;20174;-81
2021/12/06 10:11:20;;;;;;;31.17;13.20;;;19.20;53.60;;;;;;4959765;28;20821;-81
2021/12/06 10:13:46;;;;;;;28.55;11.65;;;19.10;53.50;;;;;;4969077;28;20447;-79
2021/12/06 10:16:12;;;;;;;27.02;11.80;;;19.20;53.50;;;;;;4985030;28;20055;-81
2021/12/06 10:18:38;;;;;;;36.40;12.05;;;19.20;53.40;;;;;;4983966;28;20105;-82
2021/12/06 10:21:03;;;;;;;25.70;10.20;;;19.20;53.50;;;;;;4967499;28;20117;-79
2021/12/06 10:23:29;;;;;;;25.38;9.73;;;19.20;53.40;;;;;;4969976;28;20093;-79
2021/12/06 10:25:55;;;;;;;22.42;9.57;;;19.20;53.40;;;;;;4971941;28;20506;-79
2021/12/06 10:28:24;;;;;;;23.38;9.35;;;19.20;53.40;;;;;;4972050;28;20047;-79
2021/12/06 10:30:51;;;;;;;21.08;8.73;;;19.20;53.40;;;;;;4956425;28;20129;-79
2021/12/06 10:33:21;;;;;;;22.48;8.40;;;19.20;53.40;;;;;;4971266;28;20046;-79
2021/12/06 10:35:52;;;;;;;19.25;8.27;;;19.20;53.40;;;;;;4605607;28;10008849;-79
2021/12/06 10:38:22;;;;;;;20.83;8.80;;;19.30;53.50;;;;;;4991333;28;20129;-78
2021/12/06 10:40:48;;;;;;;18.63;8.65;;;19.30;53.40;;;;;;4975052;28;20129;-78
2021/12/06 10:43:14;;;;;;;20.40;8.52;;;19.30;53.40;;;;;;4991113;28;20069;-79
2021/12/06 10:45:47;;;;;;;23.40;8.88;;;19.30;53.40;;;;;;4991328;28;20517;-79
2021/12/06 10:48:20;;;;;;;17.48;8.05;;;19.30;53.20;;;;;;4990907;28;20624;-81
2021/12/06 10:50:55;;;;;;;19.42;8.15;;;19.30;53.30;;;;;;4991621;28;20057;-79
2021/12/06 10:53:28;;;;;;;22.20;7.88;;;19.30;53.30;;;;;;4990887;28;20039;-78
2021/12/06 10:55:55;;;;;;;21.25;8.20;;;19.60;53.50;;;;;;4991272;28;20047;-80
2021/12/06 10:58:24;;;;;;;26.63;9.25;;;19.30;53.40;;;;;;4990213;28;20042;-83
2021/12/06 11:00:56;;;;;;;27.45;9.38;;;19.30;53.40;;;;;;4989384;28;20478;-83
2021/12/06 11:03:30;;;;;;;;;;;19.40;53.50;;;;;;4987805;28;20214;-83
2021/12/06 11:06:07;;;;;;;18.10;8.02;;;19.30;53.40;;;;;;4986469;28;19921;-83
2021/12/06 11:08:35;;;;;;;23.35;7.93;;;19.30;53.40;;;;;;4989794;28;20062;-84
2021/12/06 11:11:04;;;;;;;24.52;8.85;;;19.40;53.50;;;;;;4990745;28;20536;-83
2021/12/06 11:13:38;;;;;;;17.67;7.28;;;19.40;53.40;;;;;;4987661;28;20050;-83
2021/12/06 11:16:10;;;;;;;21.60;9.25;;;19.40;53.40;;;;;;4976686;28;20055;-85
2021/12/06 11:18:46;;;;;;;23.30;8.07;;;19.40;53.30;;;;;;4990989;28;20053;-85
2021/12/06 11:21:15;;;;;;;19.33;7.75;;;19.40;53.30;;;;;;4980231;28;20082;-85
2021/12/06 11:24:17;;;;;;;17.15;8.02;;;19.40;53.30;;;;;;4991329;28;20061;-86
2021/12/06 11:26:54;;;;;;;19.27;7.80;;;19.40;53.20;;;;;;4972902;28;20116;-86
2021/12/06 11:29:43;;;;;;;17.77;8.02;;;19.40;53.20;;;;;;4987375;28;20081;-85
2021/12/06 11:32:12;;;;;;;15.38;7.20;;;19.40;53.10;;;;;;4981631;28;20058;-85
2021/12/06 11:34:45;;;;;;;14.35;7.05;;;19.40;53.10;;;;;;4989575;28;20104;-86
2021/12/06 11:37:28;;;;;;;18.40;7.82;;;19.40;53.10;;;;;;4989926;28;20129;-86
2021/12/06 11:40:08;;;;;;;16.70;7.13;;;19.40;53.10;;;;;;4990732;28;20058;-86
2021/12/06 11:42:46;;;;;;;16.73;6.68;;;19.40;53.00;;;;;;4973143;28;20058;-86
2021/12/06 11:45:11;;;;;;;14.55;6.45;;;19.40;53.10;;;;;;4981665;28;20050;-86
2021/12/06 11:47:37;;;;;;;15.32;6.68;;;19.40;53.10;;;;;;4979146;28;20053;-87
2021/12/06 11:50:03;;;;;;;16.88;6.38;;;19.40;53.70;;;;;;4980850;28;20057;-86
2021/12/06 11:52:31;;;;;;;14.13;6.22;;;19.40;53.00;;;;;;4990345;28;20376;-82
2021/12/06 11:55:04;;;;;;;15.38;6.70;;;18.10;52.40;;;;;;4988006;28;20530;-88
2021/12/06 11:57:37;;;;;;;17.30;7.78;;;19.40;52.80;;;;;;4987530;28;20046;-86
2021/12/06 12:00:11;;;;;;;14.55;7.88;;;19.40;52.60;;;;;;4987023;28;20062;-91
2021/12/06 12:02:51;;;;;;;16.40;7.63;;;19.40;52.50;;;;;;4972448;28;20061;-89
2021/12/06 12:05:18;;;;;;;15.75;7.65;;;19.40;52.50;;;;;;5005182;28;20050;-89
2021/12/06 12:07:52;;;;;;;14.38;6.85;;;19.30;52.50;;;;;;4990557;28;20109;-89
2021/12/06 12:10:47;;;;;;;14.98;6.80;;;19.30;52.30;;;;;;4988982;28;20076;-89
2021/12/06 12:13:22;;;;;;;13.90;6.68;;;19.30;52.30;;;;;;4990414;28;20108;-89
2021/12/06 12:15:48;;;;;;;12.75;6.15;;;19.30;52.40;;;;;;4990311;28;20388;-90
2021/12/06 12:18:14;;;;;;;11.68;6.47;;;19.30;52.30;;;;;;4989375;28;20057;-88
2021/12/06 12:20:40;;;;;;;13.30;6.35;;;18.60;52.00;;;;;;4990188;28;20054;-89
2021/12/06 12:23:10;;;;;;;13.95;6.60;;;19.20;52.30;;;;;;4990036;28;20402;-89
2021/12/06 12:25:45;;;;;;;13.23;6.15;;;20.90;53.20;;;;;;4990011;28;20467;-89
2021/12/06 12:28:21;;;;;;;11.70;6.03;;;19.20;52.30;;;;;;4990250;28;20391;-88
2021/12/06 12:30:48;;;;;;;13.32;6.10;;;20.00;52.80;;;;;;4991479;28;20094;-89
2021/12/06 12:33:17;;;;;;;13.40;5.60;;;19.20;52.40;;;;;;4989995;28;20470;-89
2021/12/06 12:35:43;;;;;;;11.75;5.97;;;19.20;52.40;;;;;;4987998;28;20650;-89
2021/12/06 12:38:10;;;;;;;11.93;5.35;;;19.10;52.30;;;;;;4956690;28;20670;-85
2021/12/06 12:40:46;;;;;;;10.60;5.68;;;19.10;52.30;;;;;;4988884;28;20046;-81
2021/12/06 12:43:14;;;;;;;13.35;5.60;;;19.10;52.40;;;;;;4986985;28;20092;-79
2021/12/06 12:45:45;;;;;;;12.40;5.30;;;19.10;52.40;;;;;;4986954;28;20084;-82
2021/12/06 12:48:11;;;;;;;12.55;5.40;;;19.10;52.40;;;;;;4988311;28;20070;-81
2021/12/06 12:50:36;;;;;;;12.45;5.70;;;19.10;52.50;;;;;;4988376;28;20451;-80
2021/12/06 12:53:10;;;;;;;10.18;5.63;;;19.10;52.60;;;;;;4987464;28;20490;-80
2021/12/06 12:55:46;;;;;;;8.98;5.40;;;19.10;52.70;;;;;;4980014;28;20059;-81
2021/12/06 12:58:23;;;;;;;13.45;5.72;;;19.00;52.70;;;;;;4982410;28;20405;-80
2021/12/06 13:01:09;;;;;;;11.60;5.15;;;19.00;52.80;;;;;;4625427;28;10008750;-81